sensor_id;sensor_type;location;lat;lon;timestamp;pressure;altitude;pressure_sealevel;temperature;humidity
62055;BME280;48653;51.742;-1.256;2023-04-05T00:01:57;101742.07;;;9.87;39.95
62055;BME280;48653;51.742;-1.256;2023-04-05T00:04:22;101740.51;;;9.52;39.94
62055;BME280;48653;51.742;-1.256;2023-04-05T00:06:48;101738.57;;;9.64;40.18
62055;BME280;48653;51.742;-1.256;2023-04-05T00:09:13;101734.59;;;9.79;39.73
62055;BME280;48653;51.742;-1.256;2023-04-05T00:11:38;101730.54;;;10.04;40.03
62055;BME280;48653;51.742;-1.256;2023-04-05T00:14:04;101729.11;;;9.68;39.88
62055;BME280;48653;51.742;-1.256;2023-04-05T00:16:29;101726.79;;;9.47;40.29
62055;BME280;48653;51.742;-1.256;2023-04-05T00:18:55;101728.41;;;9.66;39.71
62055;BME280;48653;51.742;-1.256;2023-04-05T00:21:22;101728.86;;;9.49;40.88
62055;BME280;48653;51.742;-1.256;2023-04-05T00:23:45;101726.18;;;10.00;40.02
62055;BME280;48653;51.742;-1.256;2023-04-05T00:26:11;101721.65;;;9.47;40.44
62055;BME280;48653;51.742;-1.256;2023-04-05T00:28:36;101723.51;;;9.83;39.16
62055;BME280;48653;51.742;-1.256;2023-04-05T00:31:03;101722.20;;;9.97;39.97
62055;BME280;48653;51.742;-1.256;2023-04-05T00:33:27;101719.28;;;9.86;40.16
62055;BME280;48653;51.742;-1.256;2023-04-05T00:35:53;101721.19;;;9.81;39.99
62055;BME280;48653;51.742;-1.256;2023-04-05T00:38:18;101724.57;;;9.51;40.36
62055;BME280;48653;51.742;-1.256;2023-04-05T00:40:43;101724.71;;;9.28;40.69
62055;BME280;48653;51.742;-1.256;2023-04-05T00:43:08;101725.80;;;9.50;40.33
62055;BME280;48653;51.742;-1.256;2023-04-05T00:45:33;101723.16;;;8.85;40.72
62055;BME280;48653;51.742;-1.256;2023-04-05T00:47:59;101719.19;;;9.24;40.54
62055;BME280;48653;51.742;-1.256;2023-04-05T00:50:25;101716.91;;;9.33;40.17
62055;BME280;48653;51.742;-1.256;2023-04-05T00:52:50;101715.93;;;8.87;41.00
62055;BME280;48653;51.742;-1.256;2023-04-05T00:55:15;101711.99;;;8.94;41.50
62055;BME280;48653;51.742;-1.256;2023-04-05T00:57:41;101709.02;;;9.17;41.06
62055;BME280;48653;51.742;-1.256;2023-04-05T01:00:07;101701.43;;;8.92;41.90
62055;BME280;48653;51.742;-1.256;2023-04-05T01:02:34;101699.37;;;8.86;41.72
62055;BME280;48653;51.742;-1.256;2023-04-05T01:05:01;101695.16;;;8.79;42.31
62055;BME280;48653;51.742;-1.256;2023-04-05T01:07:27;101696.54;;;7.95;43.57
62055;BME280;48653;51.742;-1.256;2023-04-05T01:09:55;101690.13;;;7.96;43.14
62055;BME280;48653;51.742;-1.256;2023-04-05T01:12:17;101689.78;;;8.29;42.75
62055;BME280;48653;51.742;-1.256;2023-04-05T01:14:45;101683.44;;;8.23;42.19
62055;BME280;48653;51.742;-1.256;2023-04-05T01:17:05;101679.54;;;8.84;41.43
62055;BME280;48653;51.742;-1.256;2023-04-05T01:19:31;101677.34;;;8.64;41.91
62055;BME280;48653;51.742;-1.256;2023-04-05T01:22:19;101672.19;;;8.80;41.05
62055;BME280;48653;51.742;-1.256;2023-04-05T01:24:30;101667.42;;;8.52;41.92
62055;BME280;48653;51.742;-1.256;2023-04-05T01:27:01;101668.64;;;8.24;42.32
62055;BME280;48653;51.742;-1.256;2023-04-05T01:31:43;101666.18;;;8.89;41.78
62055;BME280;48653;51.742;-1.256;2023-04-05T01:34:10;101665.61;;;8.43;42.13
62055;BME280;48653;51.742;-1.256;2023-04-05T01:36:32;101665.19;;;8.27;42.22
62055;BME280;48653;51.742;-1.256;2023-04-05T01:38:56;101662.61;;;8.91;41.30
62055;BME280;48653;51.742;-1.256;2023-04-05T01:41:20;101660.03;;;8.67;42.42
62055;BME280;48653;51.742;-1.256;2023-04-05T01:43:44;101661.94;;;8.75;42.43
62055;BME280;48653;51.742;-1.256;2023-04-05T01:46:09;101657.83;;;8.69;42.28
62055;BME280;48653;51.742;-1.256;2023-04-05T01:48:35;101656.34;;;8.76;41.85
62055;BME280;48653;51.742;-1.256;2023-04-05T01:51:01;101651.85;;;8.82;42.53
62055;BME280;48653;51.742;-1.256;2023-04-05T01:53:27;101648.24;;;8.62;41.48
62055;BME280;48653;51.742;-1.256;2023-04-05T01:55:52;101643.66;;;8.69;42.04
62055;BME280;48653;51.742;-1.256;2023-04-05T01:58:17;101643.17;;;8.73;42.15
62055;BME280;48653;51.742;-1.256;2023-04-05T02:00:43;101644.51;;;9.05;42.14
62055;BME280;48653;51.742;-1.256;2023-04-05T02:03:08;101649.57;;;8.66;42.59
62055;BME280;48653;51.742;-1.256;2023-04-05T02:05:34;101648.93;;;8.50;42.47
62055;BME280;48653;51.742;-1.256;2023-04-05T02:07:59;101649.94;;;8.49;43.29
62055;BME280;48653;51.742;-1.256;2023-04-05T02:10:25;101649.65;;;8.86;42.43
62055;BME280;48653;51.742;-1.256;2023-04-05T02:12:51;101647.85;;;8.51;42.82
62055;BME280;48653;51.742;-1.256;2023-04-05T02:15:16;101644.91;;;8.63;43.14
62055;BME280;48653;51.742;-1.256;2023-04-05T02:17:41;101643.11;;;8.79;42.62
62055;BME280;48653;51.742;-1.256;2023-04-05T02:20:08;101638.03;;;9.18;41.71
62055;BME280;48653;51.742;-1.256;2023-04-05T02:22:32;101634.86;;;8.65;42.95
62055;BME280;48653;51.742;-1.256;2023-04-05T02:24:57;101629.78;;;8.63;43.20
62055;BME280;48653;51.742;-1.256;2023-04-05T02:27:23;101624.42;;;8.23;44.30
62055;BME280;48653;51.742;-1.256;2023-04-05T02:29:49;101616.93;;;8.73;43.02
62055;BME280;48653;51.742;-1.256;2023-04-05T02:32:15;101612.63;;;8.31;43.89
62055;BME280;48653;51.742;-1.256;2023-04-05T02:34:39;101610.75;;;7.84;44.75
62055;BME280;48653;51.742;-1.256;2023-04-05T02:37:05;101609.40;;;8.29;43.84
62055;BME280;48653;51.742;-1.256;2023-04-05T02:39:30;101611.22;;;8.51;44.34
62055;BME280;48653;51.742;-1.256;2023-04-05T02:41:56;101612.10;;;8.35;44.73
62055;BME280;48653;51.742;-1.256;2023-04-05T02:44:21;101608.28;;;8.04;44.46
62055;BME280;48653;51.742;-1.256;2023-04-05T02:46:47;101602.83;;;8.15;44.17
62055;BME280;48653;51.742;-1.256;2023-04-05T02:49:12;101601.73;;;8.24;43.93
62055;BME280;48653;51.742;-1.256;2023-04-05T02:51:38;101597.39;;;8.19;44.12
62055;BME280;48653;51.742;-1.256;2023-04-05T02:54:04;101596.61;;;8.45;43.63
62055;BME280;48653;51.742;-1.256;2023-04-05T02:56:29;101593.24;;;8.40;43.63
62055;BME280;48653;51.742;-1.256;2023-04-05T02:58:54;101590.96;;;8.03;44.46
62055;BME280;48653;51.742;-1.256;2023-04-05T03:01:20;101593.77;;;7.91;44.84
62055;BME280;48653;51.742;-1.256;2023-04-05T03:03:46;101588.53;;;7.78;44.85
62055;BME280;48653;51.742;-1.256;2023-04-05T03:06:11;101587.73;;;8.00;44.51
62055;BME280;48653;51.742;-1.256;2023-04-05T03:08:36;101587.30;;;8.32;44.28
62055;BME280;48653;51.742;-1.256;2023-04-05T03:11:02;101586.69;;;8.30;44.41
62055;BME280;48653;51.742;-1.256;2023-04-05T03:13:27;101581.96;;;8.10;44.43
62055;BME280;48653;51.742;-1.256;2023-04-05T03:15:53;101581.58;;;8.11;44.42
62055;BME280;48653;51.742;-1.256;2023-04-05T03:18:18;101577.07;;;8.05;44.43
62055;BME280;48653;51.742;-1.256;2023-04-05T03:20:43;101578.28;;;8.42;44.01
62055;BME280;48653;51.742;-1.256;2023-04-05T03:23:09;101577.78;;;8.54;44.10
62055;BME280;48653;51.742;-1.256;2023-04-05T03:25:35;101574.54;;;8.53;43.86
62055;BME280;48653;51.742;-1.256;2023-04-05T03:28:00;101572.85;;;8.66;43.68
62055;BME280;48653;51.742;-1.256;2023-04-05T03:30:25;101574.37;;;8.64;43.58
62055;BME280;48653;51.742;-1.256;2023-04-05T03:32:51;101573.21;;;8.52;43.33
62055;BME280;48653;51.742;-1.256;2023-04-05T03:35:16;101573.07;;;8.26;43.77
62055;BME280;48653;51.742;-1.256;2023-04-05T03:37:42;101572.78;;;8.76;43.58
62055;BME280;48653;51.742;-1.256;2023-04-05T03:40:08;101571.94;;;8.58;43.35
62055;BME280;48653;51.742;-1.256;2023-04-05T03:42:33;101570.04;;;8.45;43.71
62055;BME280;48653;51.742;-1.256;2023-04-05T03:44:59;101570.55;;;8.02;44.06
62055;BME280;48653;51.742;-1.256;2023-04-05T03:47:24;101574.21;;;8.66;43.40
62055;BME280;48653;51.742;-1.256;2023-04-05T03:49:50;101572.50;;;8.73;43.56
62055;BME280;48653;51.742;-1.256;2023-04-05T03:52:16;101566.47;;;8.74;43.13
62055;BME280;48653;51.742;-1.256;2023-04-05T03:54:41;101564.91;;;8.99;43.03
62055;BME280;48653;51.742;-1.256;2023-04-05T03:57:06;101566.49;;;8.56;43.12
62055;BME280;48653;51.742;-1.256;2023-04-05T03:59:31;101564.77;;;8.67;43.50
62055;BME280;48653;51.742;-1.256;2023-04-05T04:01:57;101567.68;;;8.51;43.25
62055;BME280;48653;51.742;-1.256;2023-04-05T04:04:22;101561.70;;;8.61;42.82
62055;BME280;48653;51.742;-1.256;2023-04-05T04:06:48;101559.20;;;8.68;43.36
62055;BME280;48653;51.742;-1.256;2023-04-05T04:09:14;101560.29;;;8.32;43.60
62055;BME280;48653;51.742;-1.256;2023-04-05T04:11:39;101553.48;;;8.39;44.04
62055;BME280;48653;51.742;-1.256;2023-04-05T04:14:04;101552.82;;;8.45;44.24
62055;BME280;48653;51.742;-1.256;2023-04-05T04:16:29;101547.96;;;8.41;44.16
62055;BME280;48653;51.742;-1.256;2023-04-05T04:18:54;101546.10;;;7.91;45.33
62055;BME280;48653;51.742;-1.256;2023-04-05T04:21:19;101543.69;;;8.33;44.51
62055;BME280;48653;51.742;-1.256;2023-04-05T04:23:44;101543.73;;;8.00;45.16
62055;BME280;48653;51.742;-1.256;2023-04-05T04:26:10;101541.20;;;7.28;46.28
62055;BME280;48653;51.742;-1.256;2023-04-05T04:28:35;101536.87;;;8.02;45.13
62055;BME280;48653;51.742;-1.256;2023-04-05T04:31:01;101545.52;;;7.59;47.20
62055;BME280;48653;51.742;-1.256;2023-04-05T04:33:26;101538.96;;;7.50;46.50
62055;BME280;48653;51.742;-1.256;2023-04-05T04:35:51;101536.82;;;7.29;46.56
62055;BME280;48653;51.742;-1.256;2023-04-05T04:38:17;101532.67;;;7.93;46.22
62055;BME280;48653;51.742;-1.256;2023-04-05T04:40:43;101530.89;;;8.32;45.45
62055;BME280;48653;51.742;-1.256;2023-04-05T04:43:09;101534.42;;;8.01;45.56
62055;BME280;48653;51.742;-1.256;2023-04-05T04:45:33;101528.91;;;7.94;44.98
62055;BME280;48653;51.742;-1.256;2023-04-05T04:47:59;101526.65;;;8.40;44.97
62055;BME280;48653;51.742;-1.256;2023-04-05T04:50:25;101521.64;;;8.34;45.42
62055;BME280;48653;51.742;-1.256;2023-04-05T04:52:50;101520.21;;;8.21;44.97
62055;BME280;48653;51.742;-1.256;2023-04-05T04:55:15;101519.51;;;8.52;44.54
62055;BME280;48653;51.742;-1.256;2023-04-05T04:57:41;101521.52;;;8.32;44.86
62055;BME280;48653;51.742;-1.256;2023-04-05T05:00:07;101517.84;;;7.90;45.72
62055;BME280;48653;51.742;-1.256;2023-04-05T05:02:32;101516.46;;;7.18;45.49
62055;BME280;48653;51.742;-1.256;2023-04-05T05:04:57;101516.69;;;8.51;44.33
62055;BME280;48653;51.742;-1.256;2023-04-05T05:07:23;101514.11;;;8.26;45.08
62055;BME280;48653;51.742;-1.256;2023-04-05T05:09:49;101515.65;;;8.37;44.79
62055;BME280;48653;51.742;-1.256;2023-04-05T05:12:14;101511.32;;;8.40;44.75
62055;BME280;48653;51.742;-1.256;2023-04-05T05:14:39;101514.75;;;7.85;45.93
62055;BME280;48653;51.742;-1.256;2023-04-05T05:17:04;101515.78;;;8.17;45.48
62055;BME280;48653;51.742;-1.256;2023-04-05T05:19:30;101513.99;;;8.20;45.27
62055;BME280;48653;51.742;-1.256;2023-04-05T05:21:55;101512.43;;;7.97;45.78
62055;BME280;48653;51.742;-1.256;2023-04-05T05:24:21;101509.21;;;8.19;45.33
62055;BME280;48653;51.742;-1.256;2023-04-05T05:26:47;101507.16;;;8.06;45.47
62055;BME280;48653;51.742;-1.256;2023-04-05T05:29:12;101508.51;;;7.89;46.04
62055;BME280;48653;51.742;-1.256;2023-04-05T05:31:38;101507.51;;;7.87;46.81
62055;BME280;48653;51.742;-1.256;2023-04-05T05:34:04;101507.44;;;7.60;46.47
62055;BME280;48653;51.742;-1.256;2023-04-05T05:36:29;101507.41;;;7.80;47.03
62055;BME280;48653;51.742;-1.256;2023-04-05T05:38:55;101503.21;;;7.46;46.88
62055;BME280;48653;51.742;-1.256;2023-04-05T05:41:20;101505.70;;;7.90;46.19
62055;BME280;48653;51.742;-1.256;2023-04-05T05:43:45;101506.35;;;7.39;46.99
62055;BME280;48653;51.742;-1.256;2023-04-05T05:46:10;101504.26;;;7.69;47.27
62055;BME280;48653;51.742;-1.256;2023-04-05T05:48:35;101507.18;;;7.78;46.65
62055;BME280;48653;51.742;-1.256;2023-04-05T05:51:01;101507.56;;;8.16;46.41
62055;BME280;48653;51.742;-1.256;2023-04-05T05:53:26;101510.02;;;7.55;46.51
62055;BME280;48653;51.742;-1.256;2023-04-05T05:55:52;101511.92;;;7.93;45.99
62055;BME280;48653;51.742;-1.256;2023-04-05T05:58:17;101514.08;;;7.52;46.86
62055;BME280;48653;51.742;-1.256;2023-04-05T06:00:43;101516.56;;;7.65;46.32
62055;BME280;48653;51.742;-1.256;2023-04-05T06:03:08;101518.71;;;7.91;45.95
62055;BME280;48653;51.742;-1.256;2023-04-05T06:05:34;101519.13;;;8.11;45.53
62055;BME280;48653;51.742;-1.256;2023-04-05T06:07:59;101520.48;;;8.20;45.44
62055;BME280;48653;51.742;-1.256;2023-04-05T06:10:25;101523.30;;;8.19;45.11
62055;BME280;48653;51.742;-1.256;2023-04-05T06:12:50;101523.16;;;8.18;45.69
62055;BME280;48653;51.742;-1.256;2023-04-05T06:15:15;101520.72;;;8.16;45.49
62055;BME280;48653;51.742;-1.256;2023-04-05T06:17:41;101519.40;;;8.15;45.21
62055;BME280;48653;51.742;-1.256;2023-04-05T06:20:08;101520.94;;;8.19;45.51
62055;BME280;48653;51.742;-1.256;2023-04-05T06:22:32;101524.25;;;8.35;45.43
62055;BME280;48653;51.742;-1.256;2023-04-05T06:24:58;101525.12;;;8.36;45.18
62055;BME280;48653;51.742;-1.256;2023-04-05T06:27:23;101522.69;;;8.16;45.27
62055;BME280;48653;51.742;-1.256;2023-04-05T06:29:49;101519.03;;;8.63;44.76
62055;BME280;48653;51.742;-1.256;2023-04-05T06:32:15;101516.39;;;8.61;45.04
62055;BME280;48653;51.742;-1.256;2023-04-05T06:34:41;101520.64;;;8.47;45.31
62055;BME280;48653;51.742;-1.256;2023-04-05T06:37:06;101521.12;;;8.78;45.00
62055;BME280;48653;51.742;-1.256;2023-04-05T06:39:31;101527.80;;;8.35;45.61
62055;BME280;48653;51.742;-1.256;2023-04-05T06:41:56;101524.23;;;8.77;45.16
62055;BME280;48653;51.742;-1.256;2023-04-05T06:44:21;101525.67;;;8.62;45.13
62055;BME280;48653;51.742;-1.256;2023-04-05T06:46:46;101524.20;;;8.47;45.50
62055;BME280;48653;51.742;-1.256;2023-04-05T06:49:12;101520.89;;;8.56;45.84
62055;BME280;48653;51.742;-1.256;2023-04-05T06:51:37;101520.60;;;8.65;45.24
62055;BME280;48653;51.742;-1.256;2023-04-05T06:54:02;101519.69;;;8.73;45.12
62055;BME280;48653;51.742;-1.256;2023-04-05T06:56:28;101517.68;;;8.96;45.45
62055;BME280;48653;51.742;-1.256;2023-04-05T06:58:53;101515.86;;;8.98;45.50
62055;BME280;48653;51.742;-1.256;2023-04-05T07:01:18;101516.92;;;8.87;45.26
62055;BME280;48653;51.742;-1.256;2023-04-05T07:03:44;101515.21;;;8.67;45.29
62055;BME280;48653;51.742;-1.256;2023-04-05T07:06:09;101515.20;;;9.15;44.48
62055;BME280;48653;51.742;-1.256;2023-04-05T07:08:35;101516.08;;;8.85;44.85
62055;BME280;48653;51.742;-1.256;2023-04-05T07:11:00;101517.65;;;8.90;44.81
62055;BME280;48653;51.742;-1.256;2023-04-05T07:13:26;101517.23;;;9.00;44.87
62055;BME280;48653;51.742;-1.256;2023-04-05T07:15:58;101514.97;;;8.92;45.04
62055;BME280;48653;51.742;-1.256;2023-04-05T07:18:18;101517.38;;;9.00;45.33
62055;BME280;48653;51.742;-1.256;2023-04-05T07:20:46;101517.18;;;8.53;46.09
62055;BME280;48653;51.742;-1.256;2023-04-05T07:23:08;101515.21;;;8.35;46.36
62055;BME280;48653;51.742;-1.256;2023-04-05T07:25:34;101515.26;;;9.31;44.81
62055;BME280;48653;51.742;-1.256;2023-04-05T07:27:59;101514.57;;;8.85;45.34
62055;BME280;48653;51.742;-1.256;2023-04-05T07:30:25;101505.63;;;9.12;45.47
62055;BME280;48653;51.742;-1.256;2023-04-05T07:32:50;101506.39;;;9.35;44.56
62055;BME280;48653;51.742;-1.256;2023-04-05T07:35:16;101504.07;;;9.58;44.09
62055;BME280;48653;51.742;-1.256;2023-04-05T07:37:42;101503.73;;;9.78;43.75
62055;BME280;48653;51.742;-1.256;2023-04-05T07:40:08;101499.92;;;8.82;45.48
62055;BME280;48653;51.742;-1.256;2023-04-05T07:42:32;101500.37;;;8.12;46.29
62055;BME280;48653;51.742;-1.256;2023-04-05T07:44:58;101494.22;;;9.12;45.15
62055;BME280;48653;51.742;-1.256;2023-04-05T07:47:23;101494.00;;;8.58;45.99
62055;BME280;48653;51.742;-1.256;2023-04-05T07:49:49;101488.59;;;9.23;44.98
62055;BME280;48653;51.742;-1.256;2023-04-05T07:52:14;101488.07;;;9.09;45.31
62055;BME280;48653;51.742;-1.256;2023-04-05T07:54:40;101486.75;;;9.30;44.75
62055;BME280;48653;51.742;-1.256;2023-04-05T07:57:05;101485.97;;;9.68;44.86
62055;BME280;48653;51.742;-1.256;2023-04-05T07:59:31;101480.15;;;9.03;45.65
62055;BME280;48653;51.742;-1.256;2023-04-05T08:01:56;101482.82;;;9.24;45.29
62055;BME280;48653;51.742;-1.256;2023-04-05T08:04:21;101478.46;;;9.70;44.95
62055;BME280;48653;51.742;-1.256;2023-04-05T08:06:47;101476.33;;;9.19;45.21
62055;BME280;48653;51.742;-1.256;2023-04-05T08:09:12;101477.11;;;9.72;45.06
62055;BME280;48653;51.742;-1.256;2023-04-05T08:11:38;101480.19;;;9.86;43.86
62055;BME280;48653;51.742;-1.256;2023-04-05T08:14:03;101479.44;;;10.24;44.00
62055;BME280;48653;51.742;-1.256;2023-04-05T08:16:28;101477.53;;;10.09;43.79
62055;BME280;48653;51.742;-1.256;2023-04-05T08:18:54;101473.79;;;10.51;43.52
62055;BME280;48653;51.742;-1.256;2023-04-05T08:21:19;101474.84;;;10.43;42.90
62055;BME280;48653;51.742;-1.256;2023-04-05T08:23:45;101473.93;;;11.00;42.58
62055;BME280;48653;51.742;-1.256;2023-04-05T08:26:10;101475.98;;;10.75;42.80
62055;BME280;48653;51.742;-1.256;2023-04-05T08:28:35;101472.61;;;10.62;42.71
62055;BME280;48653;51.742;-1.256;2023-04-05T08:31:01;101469.97;;;11.16;42.38
62055;BME280;48653;51.742;-1.256;2023-04-05T08:33:26;101468.25;;;10.59;42.62
62055;BME280;48653;51.742;-1.256;2023-04-05T08:35:52;101467.83;;;11.21;42.11
62055;BME280;48653;51.742;-1.256;2023-04-05T08:38:17;101462.76;;;11.97;41.05
62055;BME280;48653;51.742;-1.256;2023-04-05T08:40:44;101463.58;;;11.39;41.37
62055;BME280;48653;51.742;-1.256;2023-04-05T08:43:11;101464.79;;;11.61;40.71
62055;BME280;48653;51.742;-1.256;2023-04-05T08:45:33;101466.62;;;11.08;42.07
62055;BME280;48653;51.742;-1.256;2023-04-05T08:47:58;101469.61;;;10.60;43.09
62055;BME280;48653;51.742;-1.256;2023-04-05T08:50:24;101466.29;;;10.97;43.02
62055;BME280;48653;51.742;-1.256;2023-04-05T08:52:49;101469.37;;;11.47;42.49
62055;BME280;48653;51.742;-1.256;2023-04-05T08:55:15;101468.40;;;11.25;42.15
62055;BME280;48653;51.742;-1.256;2023-04-05T08:57:42;101464.50;;;10.72;42.32
62055;BME280;48653;51.742;-1.256;2023-04-05T09:00:08;101458.75;;;12.14;41.29
62055;BME280;48653;51.742;-1.256;2023-04-05T09:02:32;101458.40;;;12.10;41.06
62055;BME280;48653;51.742;-1.256;2023-04-05T09:04:58;101457.22;;;12.06;40.98
62055;BME280;48653;51.742;-1.256;2023-04-05T09:07:23;101452.32;;;12.41;40.19
62055;BME280;48653;51.742;-1.256;2023-04-05T09:09:52;101450.00;;;12.16;40.49
62055;BME280;48653;51.742;-1.256;2023-04-05T09:12:14;101447.01;;;11.77;40.85
62055;BME280;48653;51.742;-1.256;2023-04-05T09:14:40;101441.96;;;12.12;40.65
62055;BME280;48653;51.742;-1.256;2023-04-05T09:17:05;101441.80;;;12.45;40.63
62055;BME280;48653;51.742;-1.256;2023-04-05T09:19:30;101440.54;;;12.29;40.22
62055;BME280;48653;51.742;-1.256;2023-04-05T09:21:57;101443.80;;;11.87;40.38
62055;BME280;48653;51.742;-1.256;2023-04-05T09:24:30;101442.06;;;11.97;41.12
62055;BME280;48653;51.742;-1.256;2023-04-05T09:26:47;101443.43;;;12.26;41.02
62055;BME280;48653;51.742;-1.256;2023-04-05T09:31:37;101441.77;;;12.47;40.15
62055;BME280;48653;51.742;-1.256;2023-04-05T09:34:03;101441.06;;;12.26;40.30
62055;BME280;48653;51.742;-1.256;2023-04-05T09:36:28;101440.51;;;12.89;39.83
62055;BME280;48653;51.742;-1.256;2023-04-05T09:39:04;101439.56;;;12.40;39.95
62055;BME280;48653;51.742;-1.256;2023-04-05T09:41:19;101438.40;;;12.36;39.75
62055;BME280;48653;51.742;-1.256;2023-04-05T09:43:44;101433.46;;;12.68;39.25
62055;BME280;48653;51.742;-1.256;2023-04-05T09:46:29;101433.23;;;12.96;39.74
62055;BME280;48653;51.742;-1.256;2023-04-05T09:48:45;101433.29;;;12.94;39.42
62055;BME280;48653;51.742;-1.256;2023-04-05T09:51:04;101431.52;;;13.46;39.07
62055;BME280;48653;51.742;-1.256;2023-04-05T09:53:26;101433.64;;;13.00;38.62
62055;BME280;48653;51.742;-1.256;2023-04-05T09:55:51;101427.03;;;13.78;38.06
62055;BME280;48653;51.742;-1.256;2023-04-05T09:58:19;101425.76;;;13.37;38.44
62055;BME280;48653;51.742;-1.256;2023-04-05T10:00:48;101425.26;;;13.36;38.46
62055;BME280;48653;51.742;-1.256;2023-04-05T10:03:07;101428.50;;;13.20;38.69
62055;BME280;48653;51.742;-1.256;2023-04-05T10:05:33;101425.97;;;13.62;38.24
62055;BME280;48653;51.742;-1.256;2023-04-05T10:08:00;101423.15;;;14.55;37.56
62055;BME280;48653;51.742;-1.256;2023-04-05T10:10:24;101423.60;;;13.65;38.05
62055;BME280;48653;51.742;-1.256;2023-04-05T10:12:50;101420.63;;;13.91;37.58
62055;BME280;48653;51.742;-1.256;2023-04-05T10:15:15;101412.28;;;14.01;38.01
62055;BME280;48653;51.742;-1.256;2023-04-05T10:17:46;101417.08;;;13.96;37.68
62055;BME280;48653;51.742;-1.256;2023-04-05T10:20:12;101417.91;;;13.98;37.29
62055;BME280;48653;51.742;-1.256;2023-04-05T10:22:35;101419.16;;;14.40;36.62
62055;BME280;48653;51.742;-1.256;2023-04-05T10:25:03;101415.79;;;14.96;36.19
62055;BME280;48653;51.742;-1.256;2023-04-05T10:27:29;101418.70;;;14.82;36.18
62055;BME280;48653;51.742;-1.256;2023-04-05T10:29:53;101420.98;;;15.06;35.61
62055;BME280;48653;51.742;-1.256;2023-04-05T10:32:20;101421.34;;;14.19;36.66
62055;BME280;48653;51.742;-1.256;2023-04-05T10:34:44;101419.57;;;14.65;36.22
62055;BME280;48653;51.742;-1.256;2023-04-05T10:37:05;101420.06;;;14.76;36.80
62055;BME280;48653;51.742;-1.256;2023-04-05T10:39:34;101420.10;;;14.83;36.39
62055;BME280;48653;51.742;-1.256;2023-04-05T10:41:59;101417.04;;;15.10;36.04
62055;BME280;48653;51.742;-1.256;2023-04-05T10:44:21;101416.39;;;13.71;36.27
62055;BME280;48653;51.742;-1.256;2023-04-05T10:46:47;101409.26;;;14.36;36.05
62055;BME280;48653;51.742;-1.256;2023-04-05T10:49:19;101409.29;;;13.32;37.95
62055;BME280;48653;51.742;-1.256;2023-04-05T10:51:38;101417.72;;;14.23;36.91
62055;BME280;48653;51.742;-1.256;2023-04-05T10:54:03;101414.54;;;14.85;36.25
62055;BME280;48653;51.742;-1.256;2023-04-05T10:56:29;101413.94;;;14.98;36.07
62055;BME280;48653;51.742;-1.256;2023-04-05T10:58:54;101409.97;;;15.15;35.47
62055;BME280;48653;51.742;-1.256;2023-04-05T11:01:20;101409.42;;;15.28;35.57
62055;BME280;48653;51.742;-1.256;2023-04-05T11:03:46;101407.91;;;14.68;35.46
62055;BME280;48653;51.742;-1.256;2023-04-05T11:06:20;101408.12;;;15.20;34.93
62055;BME280;48653;51.742;-1.256;2023-04-05T11:08:40;101410.70;;;15.35;35.29
62055;BME280;48653;51.742;-1.256;2023-04-05T11:11:01;101407.61;;;15.22;34.98
62055;BME280;48653;51.742;-1.256;2023-04-05T11:18:20;101401.52;;;14.87;35.33
62055;BME280;48653;51.742;-1.256;2023-04-05T11:20:44;101399.86;;;14.61;35.82
62055;BME280;48653;51.742;-1.256;2023-04-05T11:23:08;101394.88;;;14.50;36.19
62055;BME280;48653;51.742;-1.256;2023-04-05T11:25:37;101399.31;;;14.21;36.40
62055;BME280;48653;51.742;-1.256;2023-04-05T11:27:59;101396.46;;;14.24;35.79
62055;BME280;48653;51.742;-1.256;2023-04-05T11:32:49;101389.62;;;14.50;35.47
62055;BME280;48653;51.742;-1.256;2023-04-05T11:35:15;101390.49;;;13.91;36.08
62055;BME280;48653;51.742;-1.256;2023-04-05T11:37:53;101388.26;;;14.32;35.85
62055;BME280;48653;51.742;-1.256;2023-04-05T11:42:30;101389.49;;;14.11;35.23
62055;BME280;48653;51.742;-1.256;2023-04-05T11:44:56;101386.78;;;14.59;35.45
62055;BME280;48653;51.742;-1.256;2023-04-05T11:47:21;101379.84;;;14.80;34.62
62055;BME280;48653;51.742;-1.256;2023-04-05T11:49:48;101378.19;;;14.32;35.13
62055;BME280;48653;51.742;-1.256;2023-04-05T11:52:13;101377.10;;;14.48;36.77
62055;BME280;48653;51.742;-1.256;2023-04-05T11:54:37;101377.23;;;14.37;36.96
62055;BME280;48653;51.742;-1.256;2023-04-05T11:57:03;101376.99;;;13.70;38.28
62055;BME280;48653;51.742;-1.256;2023-04-05T11:59:31;101380.21;;;13.75;37.69
62055;BME280;48653;51.742;-1.256;2023-04-05T12:01:58;101372.33;;;14.08;38.12
62055;BME280;48653;51.742;-1.256;2023-04-05T12:04:19;101364.08;;;13.25;37.92
62055;BME280;48653;51.742;-1.256;2023-04-05T12:06:44;101363.15;;;13.75;38.71
62055;BME280;48653;51.742;-1.256;2023-04-05T12:09:10;101364.23;;;14.15;37.84
62055;BME280;48653;51.742;-1.256;2023-04-05T12:11:36;101362.96;;;14.50;37.95
62055;BME280;48653;51.742;-1.256;2023-04-05T12:14:02;101359.29;;;14.09;39.35
62055;BME280;48653;51.742;-1.256;2023-04-05T12:16:28;101356.04;;;14.07;38.95
62055;BME280;48653;51.742;-1.256;2023-04-05T12:18:53;101356.20;;;13.94;41.16
62055;BME280;48653;51.742;-1.256;2023-04-05T12:21:18;101350.49;;;14.06;39.78
62055;BME280;48653;51.742;-1.256;2023-04-05T12:23:43;101348.90;;;13.58;40.20
62055;BME280;48653;51.742;-1.256;2023-04-05T12:26:09;101344.18;;;13.46;40.83
62055;BME280;48653;51.742;-1.256;2023-04-05T12:28:49;101343.63;;;13.68;40.70
62055;BME280;48653;51.742;-1.256;2023-04-05T12:30:59;101340.73;;;14.06;40.00
62055;BME280;48653;51.742;-1.256;2023-04-05T12:33:26;101336.97;;;13.60;40.62
62055;BME280;48653;51.742;-1.256;2023-04-05T12:35:51;101337.40;;;13.38;40.35
62055;BME280;48653;51.742;-1.256;2023-04-05T12:38:15;101333.38;;;13.81;39.78
62055;BME280;48653;51.742;-1.256;2023-04-05T12:40:40;101334.18;;;13.44;40.44
62055;BME280;48653;51.742;-1.256;2023-04-05T12:43:07;101333.41;;;14.02;39.58
62055;BME280;48653;51.742;-1.256;2023-04-05T12:45:32;101331.57;;;13.49;40.08
62055;BME280;48653;51.742;-1.256;2023-04-05T12:47:58;101328.72;;;12.62;41.74
62055;BME280;48653;51.742;-1.256;2023-04-05T12:50:26;101325.65;;;12.89;41.84